createdAt,value
2022-07-26T00:01:40.024Z,83.70
2022-07-26T00:04:07.901Z,84.00
2022-07-26T00:06:35.121Z,84.20
2022-07-26T00:09:02.192Z,84.30
2022-07-26T00:11:30.536Z,84.40
2022-07-26T00:13:57.724Z,84.90
2022-07-26T00:16:24.843Z,85.00
2022-07-26T00:18:51.959Z,85.00
2022-07-26T00:21:19.039Z,85.30
2022-07-26T00:23:51.891Z,85.40
2022-07-26T00:26:24.645Z,85.50
2022-07-26T00:28:51.658Z,85.70
2022-07-26T00:31:18.856Z,86.10
2022-07-26T00:33:45.928Z,86.50
2022-07-26T00:36:12.927Z,86.90
2022-07-26T00:38:40.661Z,87.50
2022-07-26T00:41:08.300Z,88.10
2022-07-26T00:43:35.652Z,88.30
2022-07-26T00:46:02.767Z,88.60
2022-07-26T00:48:29.899Z,88.90
2022-07-26T00:50:57.315Z,89.10
2022-07-26T00:53:24.501Z,89.10
2022-07-26T00:55:52.877Z,89.20
2022-07-26T00:58:19.951Z,89.50
2022-07-26T01:00:47.076Z,89.70
2022-07-26T01:03:14.263Z,89.70
2022-07-26T01:05:50.909Z,89.80
2022-07-26T01:08:18.113Z,90.00
2022-07-26T01:10:45.215Z,90.10
2022-07-26T01:13:13.325Z,90.30
2022-07-26T01:15:40.442Z,90.50
2022-07-26T01:18:07.644Z,90.60
2022-07-26T01:20:34.832Z,90.80
2022-07-26T01:23:02.055Z,90.80
2022-07-26T01:25:31.325Z,90.90
2022-07-26T01:27:58.549Z,91.10
2022-07-26T01:30:25.639Z,91.30
2022-07-26T01:32:52.692Z,91.40
2022-07-26T01:35:19.709Z,91.50
2022-07-26T01:37:46.750Z,91.70
2022-07-26T01:40:14.671Z,91.80
2022-07-26T01:42:41.812Z,91.80
2022-07-26T01:45:11.173Z,92.00
2022-07-26T01:47:39.580Z,92.00
2022-07-26T01:50:08.910Z,92.20
2022-07-26T01:52:36.120Z,92.30
2022-07-26T01:55:04.016Z,92.30
2022-07-26T01:57:31.089Z,92.40
2022-07-26T01:59:58.134Z,92.50
2022-07-26T02:02:25.415Z,92.40
2022-07-26T02:05:02.079Z,92.40
2022-07-26T02:07:31.511Z,92.40
2022-07-26T02:10:00.610Z,92.30
2022-07-26T02:12:27.787Z,92.30
2022-07-26T02:14:54.905Z,92.50
2022-07-26T02:17:21.930Z,92.50
2022-07-26T02:19:49.081Z,92.50
2022-07-26T02:22:16.220Z,92.60
2022-07-26T02:24:43.327Z,92.80
2022-07-26T02:27:10.444Z,92.90
2022-07-26T02:29:37.899Z,93.00
2022-07-26T02:32:05.641Z,93.20
2022-07-26T02:34:34.029Z,93.40
2022-07-26T02:37:01.364Z,93.50
2022-07-26T02:39:28.719Z,93.60
2022-07-26T02:42:01.991Z,93.80
2022-07-26T02:44:30.595Z,93.90
2022-07-26T02:46:57.655Z,93.90
2022-07-26T02:49:24.758Z,94.00
2022-07-26T02:51:52.348Z,94.10
2022-07-26T02:54:19.385Z,94.20
2022-07-26T02:56:46.396Z,94.40
2022-07-26T02:59:13.542Z,94.50
2022-07-26T03:01:40.606Z,94.60
2022-07-26T03:04:08.327Z,94.60
2022-07-26T03:06:35.724Z,94.60
2022-07-26T03:09:03.274Z,94.20
2022-07-26T03:11:30.392Z,94.10
2022-07-26T03:13:57.419Z,94.00
2022-07-26T03:16:29.062Z,94.10
2022-07-26T03:18:57.027Z,94.10
2022-07-26T03:21:24.279Z,94.40
2022-07-26T03:23:51.352Z,94.60
2022-07-26T03:26:18.349Z,94.90
2022-07-26T03:28:45.335Z,95.30
2022-07-26T03:31:13.187Z,95.40
2022-07-26T03:33:40.894Z,95.60
2022-07-26T03:36:15.321Z,95.90
2022-07-26T03:38:42.841Z,96.10
2022-07-26T03:41:13.429Z,96.40
2022-07-26T03:43:40.839Z,96.50
2022-07-26T03:46:07.970Z,96.80
2022-07-26T03:48:35.038Z,97.00
2022-07-26T03:51:02.339Z,97.30
2022-07-26T03:53:29.367Z,97.60
2022-07-26T03:56:15.162Z,98.10
2022-07-26T03:58:42.347Z,98.70
2022-07-26T04:01:09.459Z,98.90
2022-07-26T04:03:36.836Z,98.90
2022-07-26T04:06:05.347Z,99.10
2022-07-26T04:08:32.908Z,99.40
2022-07-26T04:11:00.046Z,99.60
2022-07-26T04:13:27.701Z,99.80
2022-07-26T04:15:54.770Z,99.90
2022-07-26T04:18:24.184Z,99.90
2022-07-26T04:20:52.051Z,99.90
2022-07-26T04:23:19.022Z,99.90
2022-07-26T04:25:46.011Z,99.90
2022-07-26T04:28:13.546Z,99.90
2022-07-26T04:30:40.892Z,99.90
2022-07-26T04:33:08.148Z,99.90
2022-07-26T04:35:35.508Z,99.90
2022-07-26T04:38:04.182Z,99.90
2022-07-26T04:40:33.779Z,99.90
2022-07-26T04:43:01.777Z,99.90
2022-07-26T04:45:30.037Z,99.90
2022-07-26T04:47:57.432Z,99.90
2022-07-26T04:50:25.355Z,99.90
2022-07-26T04:52:52.852Z,99.90
2022-07-26T04:55:20.593Z,99.90
2022-07-26T04:57:48.375Z,99.90
2022-07-26T05:00:22.958Z,99.90
2022-07-26T05:03:00.662Z,99.90
2022-07-26T05:05:30.238Z,99.90
2022-07-26T05:07:59.618Z,99.90
2022-07-26T05:10:35.519Z,99.90
2022-07-26T05:13:04.179Z,99.90
2022-07-26T05:15:36.780Z,99.90
2022-07-26T05:18:07.379Z,99.90
2022-07-26T05:20:37.062Z,99.90
2022-07-26T05:23:04.271Z,99.90
2022-07-26T05:25:31.352Z,99.90
2022-07-26T05:27:58.418Z,99.90
2022-07-26T05:30:25.541Z,99.90
2022-07-26T05:32:52.639Z,99.90
2022-07-26T05:35:19.687Z,99.90
2022-07-26T05:37:46.797Z,99.90
2022-07-26T05:40:14.120Z,99.90
2022-07-26T05:42:41.284Z,99.90
2022-07-26T05:45:09.122Z,99.90
2022-07-26T05:47:36.428Z,99.90
2022-07-26T05:50:04.609Z,99.90
2022-07-26T05:52:31.655Z,99.90
2022-07-26T05:54:59.014Z,99.90
2022-07-26T05:57:26.686Z,99.90
2022-07-26T05:59:53.667Z,99.90
2022-07-26T06:02:20.775Z,97.40
2022-07-26T06:04:47.949Z,95.00
2022-07-26T06:07:15.662Z,93.70
2022-07-26T06:09:42.919Z,93.40
2022-07-26T06:12:10.081Z,93.30
2022-07-26T06:14:37.173Z,93.00
2022-07-26T06:17:04.717Z,92.30
2022-07-26T06:19:32.414Z,91.50
2022-07-26T06:21:59.823Z,90.30
2022-07-26T06:24:26.947Z,88.80
2022-07-26T06:26:58.154Z,87.00
2022-07-26T06:29:32.714Z,87.70
2022-07-26T06:32:00.108Z,88.60
2022-07-26T06:34:27.364Z,88.60
2022-07-26T06:36:54.407Z,88.30
2022-07-26T06:39:21.472Z,86.80
2022-07-26T06:41:48.723Z,86.10
2022-07-26T06:44:15.724Z,84.40
2022-07-26T06:46:42.875Z,82.60
2022-07-26T06:49:09.932Z,82.10
2022-07-26T06:51:37.104Z,81.00
2022-07-26T06:54:05.784Z,81.00
2022-07-26T06:56:33.289Z,82.70
2022-07-26T06:59:00.289Z,83.90
2022-07-26T07:01:51.434Z,84.00
2022-07-26T07:04:14.311Z,84.40
2022-07-26T07:06:41.359Z,82.30
2022-07-26T07:09:09.063Z,80.70
2022-07-26T07:11:36.683Z,80.00
2022-07-26T07:14:05.335Z,78.30
2022-07-26T07:16:32.534Z,74.90
2022-07-26T07:18:59.574Z,73.70
2022-07-26T07:21:27.444Z,73.10
2022-07-26T07:23:54.464Z,72.00
2022-07-26T07:26:21.564Z,73.00
2022-07-26T07:28:48.776Z,74.00
2022-07-26T07:31:15.931Z,77.10
2022-07-26T07:33:52.581Z,80.40
2022-07-26T07:36:20.928Z,84.20
2022-07-26T07:38:49.141Z,85.40
2022-07-26T07:41:16.611Z,84.20
2022-07-26T07:43:43.643Z,79.80
2022-07-26T07:46:10.754Z,79.00
2022-07-26T07:48:43.413Z,76.60
2022-07-26T07:51:13.785Z,74.90
2022-07-26T07:53:40.826Z,73.10
2022-07-26T07:56:08.421Z,71.70
2022-07-26T07:58:35.418Z,70.00
2022-07-26T08:01:02.623Z,68.10
2022-07-26T08:03:38.832Z,66.30
2022-07-26T08:06:08.718Z,65.50
2022-07-26T08:08:36.980Z,67.30
2022-07-26T08:11:05.015Z,69.40
2022-07-26T08:13:35.195Z,72.80
2022-07-26T08:16:02.503Z,72.70
2022-07-26T08:18:29.687Z,73.80
2022-07-26T08:20:57.048Z,75.30
2022-07-26T08:23:24.137Z,77.10
2022-07-26T08:26:01.929Z,78.00
2022-07-26T08:28:47.741Z,79.00
2022-07-26T08:31:16.166Z,74.70
2022-07-26T08:33:46.348Z,74.70
2022-07-26T08:36:15.548Z,75.40
2022-07-26T08:38:43.385Z,76.80
2022-07-26T08:41:10.402Z,76.20
2022-07-26T08:43:45.290Z,74.30
2022-07-26T08:46:24.904Z,73.80
2022-07-26T08:48:53.034Z,73.40
2022-07-26T08:51:22.751Z,73.60
2022-07-26T08:53:50.803Z,73.80
2022-07-26T08:56:17.866Z,73.50
2022-07-26T08:58:45.789Z,71.10
2022-07-26T09:01:13.575Z,71.30
2022-07-26T09:03:45.390Z,70.90
2022-07-26T09:06:21.323Z,72.80
2022-07-26T09:08:50.882Z,71.80
2022-07-26T09:11:23.933Z,72.90
2022-07-26T09:14:11.234Z,75.40
2022-07-26T09:16:40.159Z,74.70
2022-07-26T09:19:22.811Z,70.90
2022-07-26T09:21:51.382Z,67.90
2022-07-26T09:24:35.946Z,70.20
2022-07-26T09:27:05.621Z,68.00
2022-07-26T09:29:52.558Z,66.30
2022-07-26T09:32:22.123Z,61.30
2022-07-26T09:34:54.355Z,59.70
2022-07-26T09:37:36.156Z,59.80
2022-07-26T09:40:09.709Z,60.80
2022-07-26T09:42:37.248Z,62.60
2022-07-26T09:45:16.644Z,61.40
2022-07-26T09:47:43.670Z,60.40
2022-07-26T09:50:11.642Z,60.40
2022-07-26T09:52:39.095Z,60.20
2022-07-26T09:55:07.853Z,58.70
2022-07-26T09:57:35.600Z,56.70
2022-07-26T10:00:05.986Z,55.60
2022-07-26T10:02:35.068Z,55.30
2022-07-26T10:05:02.238Z,52.90
2022-07-26T10:07:29.560Z,53.50
2022-07-26T10:10:11.587Z,54.70
2022-07-26T10:12:39.052Z,55.50
2022-07-26T10:15:06.646Z,54.70
2022-07-26T10:17:41.717Z,54.30
2022-07-26T10:20:17.421Z,54.30
2022-07-26T10:22:51.685Z,53.70
2022-07-26T10:25:18.748Z,53.60
2022-07-26T10:27:55.492Z,54.50
2022-07-26T10:30:33.548Z,56.60
2022-07-26T10:33:10.055Z,56.60
2022-07-26T10:35:42.107Z,57.50
2022-07-26T10:38:26.455Z,58.00
2022-07-26T10:41:03.654Z,56.60
2022-07-26T10:43:41.212Z,55.70
2022-07-26T10:46:18.664Z,55.10
2022-07-26T10:49:08.637Z,52.60
2022-07-26T10:51:40.744Z,53.20
2022-07-26T10:54:11.686Z,54.10
2022-07-26T10:56:39.607Z,55.40
2022-07-26T10:59:06.955Z,56.00
2022-07-26T11:01:39.092Z,55.00
2022-07-26T11:04:17.664Z,53.70
2022-07-26T11:06:45.940Z,53.00
2022-07-26T11:09:13.701Z,51.90
2022-07-26T11:11:47.062Z,51.60
2022-07-26T11:14:17.566Z,52.20
2022-07-26T11:16:50.155Z,52.40
2022-07-26T11:19:20.337Z,51.40
2022-07-26T11:22:00.297Z,52.10
2022-07-26T11:24:28.271Z,52.60
2022-07-26T11:26:55.732Z,52.30
2022-07-26T11:29:38.678Z,52.20
2022-07-26T11:32:20.435Z,53.90
2022-07-26T11:35:00.393Z,52.30
2022-07-26T11:37:28.212Z,50.60
2022-07-26T11:39:55.393Z,50.80
2022-07-26T11:42:22.746Z,49.80
2022-07-26T11:44:50.916Z,50.70
2022-07-26T11:47:20.572Z,48.70
2022-07-26T11:50:01.074Z,49.20
2022-07-26T11:52:35.793Z,49.80
2022-07-26T11:55:02.867Z,52.60
2022-07-26T11:57:31.896Z,53.60
2022-07-26T12:00:00.788Z,53.10
2022-07-26T12:02:29.448Z,52.30
2022-07-26T12:05:22.888Z,51.60
2022-07-26T12:07:59.519Z,52.40
2022-07-26T12:10:27.861Z,52.00
2022-07-26T12:13:27.357Z,51.80
2022-07-26T12:16:07.072Z,50.90
2022-07-26T12:18:35.461Z,50.60
2022-07-26T12:21:08.404Z,51.00
2022-07-26T12:23:48.792Z,51.50
2022-07-26T12:26:27.475Z,50.50
2022-07-26T12:28:55.770Z,49.30
2022-07-26T12:31:28.240Z,49.20
2022-07-26T12:33:55.937Z,50.90
2022-07-26T12:36:27.977Z,49.80
2022-07-26T12:39:00.562Z,50.10
2022-07-26T12:41:36.946Z,50.70
2022-07-26T12:44:06.053Z,49.10
2022-07-26T12:46:35.222Z,47.50
2022-07-26T12:49:04.229Z,47.50
2022-07-26T12:51:31.592Z,48.90
2022-07-26T12:53:59.008Z,51.50
2022-07-26T12:56:25.982Z,51.30
2022-07-26T12:58:54.231Z,49.90
2022-07-26T13:01:21.761Z,49.50
2022-07-26T13:03:48.943Z,49.20
2022-07-26T13:06:15.921Z,50.60
2022-07-26T13:08:42.935Z,50.80
2022-07-26T13:11:10.517Z,51.00
2022-07-26T13:13:37.603Z,50.60
2022-07-26T13:16:11.156Z,50.40
2022-07-26T13:18:39.020Z,49.70
2022-07-26T13:21:06.140Z,50.30
2022-07-26T13:23:35.758Z,49.80
2022-07-26T13:26:04.483Z,48.90
2022-07-26T13:28:36.531Z,48.60
2022-07-26T13:31:03.908Z,49.10
2022-07-26T13:33:32.135Z,48.40
2022-07-26T13:35:59.134Z,48.10
2022-07-26T13:38:28.070Z,48.00
2022-07-26T13:40:55.148Z,48.60
2022-07-26T13:43:22.175Z,47.50
2022-07-26T13:45:49.256Z,46.60
2022-07-26T13:48:16.507Z,47.20
2022-07-26T13:50:43.714Z,48.00
2022-07-26T13:53:10.747Z,48.10
2022-07-26T13:55:37.933Z,48.10
2022-07-26T13:58:09.667Z,48.50
2022-07-26T14:00:37.697Z,49.10
2022-07-26T14:03:05.249Z,49.30
2022-07-26T14:05:32.503Z,49.90
2022-07-26T14:07:59.648Z,48.40
2022-07-26T14:10:26.790Z,47.50
2022-07-26T14:12:53.820Z,47.00
2022-07-26T14:15:23.141Z,47.20
2022-07-26T14:17:53.731Z,47.50
2022-07-26T14:20:21.759Z,47.40
2022-07-26T14:22:49.511Z,47.60
2022-07-26T14:25:16.489Z,48.90
2022-07-26T14:27:43.661Z,49.00
2022-07-26T14:30:11.455Z,49.70
2022-07-26T14:32:38.540Z,48.50
2022-07-26T14:35:06.485Z,47.60
2022-07-26T14:37:43.176Z,49.10
2022-07-26T14:40:15.034Z,48.80
2022-07-26T14:42:42.429Z,48.70
2022-07-26T14:45:10.153Z,48.00
2022-07-26T14:47:37.485Z,48.50
2022-07-26T14:50:07.551Z,48.30
2022-07-26T14:52:38.591Z,47.70
2022-07-26T14:55:06.638Z,46.10
2022-07-26T14:57:34.006Z,45.60
2022-07-26T15:00:09.638Z,45.20
2022-07-26T15:02:39.537Z,44.50
2022-07-26T15:05:06.815Z,43.90
2022-07-26T15:07:33.860Z,43.00
2022-07-26T15:10:00.883Z,43.50
2022-07-26T15:12:27.973Z,42.90
2022-07-26T15:14:54.995Z,44.10
2022-07-26T15:17:22.000Z,44.40
2022-07-26T15:19:49.012Z,45.70
2022-07-26T15:22:16.068Z,47.10
2022-07-26T15:24:43.225Z,48.50
2022-07-26T15:27:10.472Z,49.70
2022-07-26T15:29:38.083Z,49.00
2022-07-26T15:32:06.228Z,48.10
2022-07-26T15:34:33.992Z,46.90
2022-07-26T15:37:01.681Z,46.70
2022-07-26T15:39:28.684Z,46.00
2022-07-26T15:41:55.787Z,45.60
2022-07-26T15:44:25.625Z,45.20
2022-07-26T15:46:53.312Z,44.20
2022-07-26T15:49:20.531Z,44.90
2022-07-26T15:51:47.837Z,45.00
2022-07-26T15:54:16.449Z,44.40
2022-07-26T15:56:44.220Z,43.90
2022-07-26T15:59:12.125Z,44.20
2022-07-26T16:01:39.356Z,44.40
2022-07-26T16:04:07.270Z,44.50
2022-07-26T16:06:35.317Z,45.30
2022-07-26T16:09:16.557Z,45.60
2022-07-26T16:11:45.850Z,45.60
2022-07-26T16:14:12.889Z,45.40
2022-07-26T16:16:40.124Z,44.90
2022-07-26T16:19:07.391Z,44.40
2022-07-26T16:21:34.575Z,45.30
2022-07-26T16:24:06.276Z,45.90
2022-07-26T16:26:34.245Z,47.60
2022-07-26T16:29:01.253Z,49.00
2022-07-26T16:31:28.510Z,51.40
2022-07-26T16:33:55.567Z,51.20
2022-07-26T16:36:22.592Z,51.90
2022-07-26T16:38:49.603Z,53.00
2022-07-26T16:41:16.615Z,52.30
2022-07-26T16:43:43.603Z,51.60
2022-07-26T16:46:10.868Z,50.00
2022-07-26T16:48:37.964Z,48.90
2022-07-26T16:51:05.284Z,48.00
2022-07-26T16:53:32.307Z,47.80
2022-07-26T16:55:59.503Z,47.60
2022-07-26T16:58:26.573Z,47.90
2022-07-26T17:00:53.805Z,47.70
2022-07-26T17:03:20.961Z,48.00
2022-07-26T17:05:47.995Z,48.30
2022-07-26T17:08:15.203Z,48.70
2022-07-26T17:10:43.122Z,48.50
2022-07-26T17:13:10.164Z,49.80
2022-07-26T17:15:37.250Z,51.20
2022-07-26T17:18:04.619Z,51.60
2022-07-26T17:20:31.748Z,52.60
2022-07-26T17:22:58.775Z,53.80
2022-07-26T17:25:25.817Z,54.90
2022-07-26T17:27:53.226Z,55.70
2022-07-26T17:30:20.292Z,56.10
2022-07-26T17:32:47.419Z,56.80
2022-07-26T17:35:14.653Z,56.60
2022-07-26T17:37:41.899Z,56.80
2022-07-26T17:40:10.877Z,57.00
2022-07-26T17:42:38.380Z,56.70
2022-07-26T17:45:06.694Z,56.80
2022-07-26T17:47:33.792Z,57.40
2022-07-26T17:52:53.495Z,58.60
2022-07-26T17:55:21.219Z,58.70
2022-07-26T17:57:49.687Z,59.00
2022-07-26T18:00:19.552Z,59.00
2022-07-26T18:02:47.239Z,58.80
2022-07-26T18:05:14.738Z,58.30
2022-07-26T18:07:41.963Z,58.50
2022-07-26T18:10:10.205Z,58.90
2022-07-26T18:12:37.391Z,59.20
2022-07-26T18:15:05.292Z,59.50
2022-07-26T18:17:32.963Z,59.80
2022-07-26T18:19:59.932Z,60.50
2022-07-26T18:22:27.449Z,61.10
2022-07-26T18:24:54.552Z,61.70
2022-07-26T18:27:22.485Z,62.30
2022-07-26T18:29:49.750Z,62.90
2022-07-26T18:32:16.975Z,63.30
2022-07-26T18:34:51.600Z,64.00
2022-07-26T18:37:20.680Z,64.40
2022-07-26T18:39:48.401Z,64.90
2022-07-26T18:42:15.855Z,65.40
2022-07-26T18:44:42.866Z,65.80
2022-07-26T18:47:09.864Z,66.20
2022-07-26T18:49:37.042Z,66.50
2022-07-26T18:52:08.779Z,66.80
2022-07-26T18:54:36.792Z,67.70
2022-07-26T18:57:04.415Z,67.90
2022-07-26T18:59:31.703Z,68.30
2022-07-26T19:02:00.209Z,68.80
2022-07-26T19:04:27.801Z,69.30
2022-07-26T19:06:54.891Z,69.90
2022-07-26T19:09:22.101Z,70.90
2022-07-26T19:11:49.151Z,71.70
2022-07-26T19:14:16.163Z,73.20
2022-07-26T19:16:43.148Z,72.40
2022-07-26T19:19:10.708Z,72.90
2022-07-26T19:21:38.294Z,72.70
2022-07-26T19:24:05.734Z,73.00
2022-07-26T19:26:32.831Z,73.00
2022-07-26T19:28:59.828Z,73.20
2022-07-26T19:31:26.950Z,73.30
2022-07-26T19:33:53.930Z,73.30
2022-07-26T19:36:25.362Z,73.10
2022-07-26T19:38:52.868Z,73.10
2022-07-26T19:41:20.153Z,73.20
2022-07-26T19:43:47.220Z,73.50
2022-07-26T19:46:14.456Z,73.20
2022-07-26T19:48:41.625Z,73.40
2022-07-26T19:51:08.769Z,73.60
2022-07-26T19:53:35.842Z,73.80
2022-07-26T19:56:03.661Z,73.70
2022-07-26T19:58:31.091Z,73.80
2022-07-26T20:00:58.168Z,74.10
2022-07-26T20:03:25.252Z,74.30
2022-07-26T20:05:53.760Z,74.80
2022-07-26T20:08:21.042Z,74.60
2022-07-26T20:10:48.156Z,74.70
2022-07-26T20:13:15.307Z,74.60
2022-07-26T20:15:42.507Z,74.60
2022-07-26T20:18:10.558Z,75.50
2022-07-26T20:20:37.680Z,75.40
2022-07-26T20:23:06.204Z,76.10
2022-07-26T20:25:34.117Z,76.60
2022-07-26T20:28:01.252Z,76.60
2022-07-26T20:30:29.446Z,77.10
2022-07-26T20:32:56.629Z,77.00
2022-07-26T20:35:23.683Z,77.60
2022-07-26T20:37:50.670Z,77.60
2022-07-26T20:40:18.020Z,78.00
2022-07-26T20:42:47.593Z,78.20
2022-07-26T20:45:17.430Z,78.60
2022-07-26T20:47:44.444Z,78.60
2022-07-26T20:50:12.266Z,78.60
2022-07-26T20:52:40.030Z,79.10
2022-07-26T20:55:08.192Z,79.00
2022-07-26T20:57:36.083Z,80.00
2022-07-26T21:00:06.887Z,79.00
2022-07-26T21:02:34.288Z,79.20
2022-07-26T21:05:01.456Z,79.20
2022-07-26T21:07:57.196Z,79.00
2022-07-26T21:10:15.664Z,79.10
2022-07-26T21:12:42.879Z,79.40
2022-07-26T21:15:10.523Z,79.40
2022-07-26T21:17:38.167Z,79.60
2022-07-26T21:20:05.940Z,80.00
2022-07-26T21:22:33.035Z,80.30
2022-07-26T21:25:00.464Z,80.50
2022-07-26T21:27:27.492Z,80.80
2022-07-26T21:29:54.496Z,81.10
2022-07-26T21:32:21.478Z,81.70
2022-07-26T21:34:48.588Z,82.00
2022-07-26T21:37:15.666Z,82.70
2022-07-26T21:39:42.839Z,83.00
2022-07-26T21:42:09.885Z,83.00
2022-07-26T21:44:36.906Z,83.40
2022-07-26T21:47:05.881Z,83.60
2022-07-26T21:49:33.959Z,83.50
2022-07-26T21:52:01.044Z,83.40
2022-07-26T21:54:28.082Z,83.50
2022-07-26T21:56:55.172Z,84.00
2022-07-26T21:59:22.246Z,83.60
2022-07-26T22:01:49.341Z,83.70
2022-07-26T22:04:17.942Z,83.70
2022-07-26T22:06:45.114Z,83.80
2022-07-26T22:09:12.407Z,84.00
2022-07-26T22:11:39.796Z,84.30
2022-07-26T22:14:08.542Z,84.80
2022-07-26T22:16:36.115Z,85.30
2022-07-26T22:19:03.236Z,85.50
2022-07-26T22:21:30.336Z,85.20
2022-07-26T22:23:57.368Z,85.40
2022-07-26T22:26:27.679Z,85.60
2022-07-26T22:28:54.696Z,86.60
2022-07-26T22:31:21.803Z,86.40
2022-07-26T22:33:49.460Z,86.60
2022-07-26T22:36:17.894Z,86.40
2022-07-26T22:38:46.468Z,86.40
2022-07-26T22:41:14.063Z,87.20
2022-07-26T22:43:41.108Z,88.20
2022-07-26T22:46:08.208Z,88.30
2022-07-26T22:48:38.386Z,88.40
2022-07-26T22:51:05.980Z,88.80
2022-07-26T22:53:33.039Z,88.90
2022-07-26T22:56:00.009Z,88.70
2022-07-26T22:58:26.958Z,88.70
2022-07-26T23:00:54.719Z,88.90
2022-07-26T23:03:22.098Z,89.30
2022-07-26T23:05:50.341Z,89.80
2022-07-26T23:08:45.686Z,90.50
2022-07-26T23:11:05.684Z,90.30
2022-07-26T23:13:32.744Z,90.60
2022-07-26T23:16:01.189Z,90.80
2022-07-26T23:18:28.934Z,91.10
2022-07-26T23:20:55.992Z,91.30
2022-07-26T23:23:23.113Z,91.60
2022-07-26T23:25:52.427Z,91.70
2022-07-26T23:28:36.596Z,91.80
2022-07-26T23:31:07.842Z,91.80
2022-07-26T23:33:52.258Z,91.80
2022-07-26T23:36:25.594Z,91.80
2022-07-26T23:38:53.535Z,92.00
2022-07-26T23:41:20.997Z,92.20
2022-07-26T23:43:48.076Z,92.40
2022-07-26T23:46:15.307Z,92.70
2022-07-26T23:48:42.411Z,93.00
2022-07-26T23:51:09.538Z,93.30
2022-07-26T23:53:36.825Z,93.40
2022-07-26T23:56:04.050Z,93.50
2022-07-26T23:58:31.052Z,93.50
